Time;durP1;ratioP1;P1;durP2;ratioP2;P2;SDS_P1;SDS_P2;PMS_P1;PMS_P2;Temp;Humidity;BMP_temperature;BMP_pressure;BME280_temperature;BME280_humidity;BME280_pressure;Samples;Min_cycle;Max_cycle;Signal;HPM_P1;HPM_P2
2023/03/27 00:01:10;;;;;;;10.95;2.20;;;;;;;5.16;69.34;99416.13;5012826;28;20054;-80
2023/03/27 00:03:38;;;;;;;9.13;2.00;;;;;;;5.14;69.37;99417.94;5012979;28;20058;-79
2023/03/27 00:06:15;;;;;;;13.55;2.03;;;;;;;5.08;68.13;99416.41;5012812;28;20141;-80
2023/03/27 00:08:43;;;;;;;4.43;1.50;;;;;;;5.07;69.80;99422.56;5012499;28;20057;-80
2023/03/27 00:11:10;;;;;;;14.30;2.45;;;;;;;5.07;69.58;99419.94;5012833;28;20057;-81
2023/03/27 00:13:37;;;;;;;9.95;2.05;;;;;;;5.06;69.78;99431.28;5012616;28;20492;-81
2023/03/27 00:16:17;;;;;;;10.63;1.50;;;;;;;5.04;69.72;99430.50;5012624;28;20564;-80
2023/03/27 00:18:44;;;;;;;7.63;2.20;;;;;;;5.03;69.52;99432.28;5012151;28;20050;-80
2023/03/27 00:21:11;;;;;;;14.73;2.30;;;;;;;5.00;69.31;99437.59;5012562;28;20739;-80
2023/03/27 00:23:37;;;;;;;6.15;2.15;;;;;;;4.99;69.51;99441.13;5012669;28;20088;-80
2023/03/27 00:26:04;;;;;;;11.65;2.03;;;;;;;4.97;69.98;99449.91;4994696;28;20146;-79
2023/03/27 00:28:30;;;;;;;12.13;1.85;;;;;;;4.94;69.89;99440.47;5012160;28;20054;-80
2023/03/27 00:30:57;;;;;;;10.02;1.75;;;;;;;4.93;70.16;99454.38;5012517;28;20141;-79
2023/03/27 00:33:24;;;;;;;8.50;1.83;;;;;;;4.91;70.10;99454.47;5012415;28;20078;-80
2023/03/27 00:35:51;;;;;;;10.35;2.40;;;;;;;4.89;70.20;99458.88;5012060;28;20116;-79
2023/03/27 00:38:18;;;;;;;8.60;2.35;;;;;;;4.88;70.26;99461.53;4994305;28;20076;-79
2023/03/27 00:40:45;;;;;;;8.63;2.13;;;;;;;4.87;70.18;99465.06;5012370;28;20057;-79
2023/03/27 00:43:27;;;;;;;9.27;1.73;;;;;;;4.83;68.18;99467.78;5012456;28;20061;-80
2023/03/27 00:46:04;;;;;;;7.30;1.38;;;;;;;4.85;69.29;99465.13;5011875;28;20050;-79
2023/03/27 00:48:34;;;;;;;7.72;1.70;;;;;;;4.85;70.04;99472.94;5011844;28;20061;-79
2023/03/27 00:51:02;;;;;;;7.22;1.80;;;;;;;4.85;70.23;99474.72;5010773;28;20054;-79
2023/03/27 00:53:29;;;;;;;12.73;2.13;;;;;;;4.85;70.31;99482.53;5012231;28;20053;-80
2023/03/27 00:56:01;;;;;;;9.00;1.67;;;;;;;4.81;69.70;99487.88;5011700;28;20053;-80
2023/03/27 00:58:32;;;;;;;9.63;2.47;;;;;;;4.80;69.71;99482.72;5011568;28;20209;-79
2023/03/27 01:00:59;;;;;;;8.77;1.80;;;;;;;4.81;70.46;99487.88;5010513;28;20088;-80
2023/03/27 01:03:29;;;;;;;14.70;1.80;;;;;;;4.79;69.85;99494.06;5011062;28;20058;-79
2023/03/27 01:05:59;;;;;;;7.00;1.60;;;;;;;4.79;69.87;99501.88;5003658;28;20604;-79
2023/03/27 01:08:28;;;;;;;13.95;2.38;;;;;;;4.78;70.33;99497.53;5011115;28;20505;-80
2023/03/27 01:11:32;;;;;;;12.02;2.40;;;;;;;4.74;68.65;99495.97;5011766;28;20058;-80
2023/03/27 01:14:06;;;;;;;;;;;;;;;4.78;68.31;99500.16;5012318;28;20058;-80
2023/03/27 01:17:10;;;;;;;12.18;2.13;;;;;;;4.76;68.48;99505.44;5011073;28;19975;-80
2023/03/27 01:19:58;;;;;;;12.07;1.70;;;;;;;4.75;69.88;99508.09;5011202;28;20177;-79
2023/03/27 01:22:51;;;;;;;6.38;1.58;;;;;;;4.71;69.35;99502.13;5011875;28;20145;-80
2023/03/27 01:25:49;;;;;;;12.48;2.47;;;;;;;4.65;68.69;99512.81;5011273;28;20058;-80
2023/03/27 01:28:18;;;;;;;14.30;2.40;;;;;;;4.67;70.38;99517.06;5011010;28;20393;-79
2023/03/27 01:30:55;;;;;;;10.00;1.75;;;;;;;4.62;69.44;99512.91;5011601;28;20058;-79
2023/03/27 01:33:48;;;;;;;13.13;2.53;;;;;;;4.56;68.63;99520.06;4994175;28;20058;-80
2023/03/27 01:36:15;;;;;;;9.90;1.70;;;;;;;4.59;70.77;99524.31;5002062;28;20089;-79
2023/03/27 01:39:12;;;;;;;11.77;2.25;;;;;;;4.52;68.62;99526.28;5010883;28;20050;-79
2023/03/27 01:42:05;;;;;;;8.27;1.73;;;;;;;4.50;68.93;99533.31;5011189;28;20530;-79
2023/03/27 01:44:48;;;;;;;9.27;1.75;;;;;;;4.49;69.34;99528.97;5011247;28;20084;-79
2023/03/27 01:47:15;;;;;;;14.30;2.28;;;;;;;4.50;71.11;99530.72;5010544;28;20124;-79
2023/03/27 01:49:54;;;;;;;7.82;2.15;;;;;;;4.45;69.46;99526.56;5011215;28;20057;-79
2023/03/27 01:52:26;;;;;;;9.75;1.90;;;;;;;4.46;70.44;99534.31;5011253;28;20112;-79
2023/03/27 01:54:57;;;;;;;9.82;1.95;;;;;;;4.44;70.73;99530.91;5010786;28;20149;-79
2023/03/27 01:57:29;;;;;;;7.50;1.77;;;;;;;4.44;70.55;99536.13;5010547;28;20046;-79
2023/03/27 02:00:16;;;;;;;9.68;1.80;;;;;;;4.39;70.39;99538.91;5010922;28;20062;-79
2023/03/27 02:02:57;;;;;;;8.60;2.30;;;;;;;4.37;70.16;99539.88;4993443;28;20579;-79
2023/03/27 02:05:33;;;;;;;9.27;2.20;;;;;;;4.36;70.28;99548.56;5010686;28;20428;-79
2023/03/27 02:08:10;;;;;;;10.93;2.10;;;;;;;4.33;69.88;99544.31;5010260;28;20058;-78
2023/03/27 02:10:43;;;;;;;10.77;2.53;;;;;;;4.34;71.00;99553.00;4993482;28;20424;-80
2023/03/27 02:13:20;;;;;;;11.88;1.92;;;;;;;4.30;70.38;99554.88;5010837;28;20085;-79
2023/03/27 02:15:49;;;;;;;13.85;2.28;;;;;;;4.31;71.39;99556.56;5010344;28;20097;-79
2023/03/27 02:18:28;;;;;;;6.55;2.53;;;;;;;4.28;70.23;99562.72;5010065;28;20109;-79
2023/03/27 02:20:54;;;;;;;5.18;1.83;;;;;;;4.29;71.95;99571.38;5010393;28;20127;-80
2023/03/27 02:23:21;;;;;;;6.97;1.60;;;;;;;4.27;71.92;99568.81;5010531;28;20076;-79
2023/03/27 02:25:50;;;;;;;11.52;2.58;;;;;;;4.26;72.24;99569.72;4992800;28;20567;-79
2023/03/27 02:28:35;;;;;;;11.23;2.30;;;;;;;4.27;71.96;99573.19;5009834;28;20112;-79
2023/03/27 02:31:10;;;;;;;9.68;1.98;;;;;;;4.24;70.61;99573.28;5010459;28;20132;-79
2023/03/27 02:34:33;;;;;;;8.20;2.70;;;;;;;4.22;70.67;99578.56;5010419;28;20053;-79
2023/03/27 02:37:40;;;;;;;16.42;2.03;;;;;;;4.22;70.74;99577.72;5009396;28;20137;-79
2023/03/27 02:40:38;;;;;;;7.38;1.88;;;;;;;4.22;70.97;99582.94;5010385;28;20443;-79
2023/03/27 02:43:18;;;;;;;11.85;2.05;;;;;;;4.24;71.43;99591.53;5010192;28;20054;-79
2023/03/27 02:46:19;;;;;;;11.93;1.90;;;;;;;4.24;71.57;99595.00;5010125;28;20097;-79
2023/03/27 02:48:50;;;;;;;9.00;2.13;;;;;;;4.30;72.91;99594.78;5005495;28;20423;-79
2023/03/27 02:51:52;;;;;;;11.60;2.38;;;;;;;4.32;72.09;99596.47;5010178;28;20121;-79
2023/03/27 02:54:24;;;;;;;9.48;2.13;;;;;;;4.36;72.83;99595.47;4993178;28;20665;-80
2023/03/27 02:56:57;;;;;;;5.78;1.65;;;;;;;4.37;72.15;99610.22;5009360;28;20057;-79
2023/03/27 02:59:34;;;;;;;5.82;1.65;;;;;;;4.36;71.38;99606.75;5010040;28;20066;-79
2023/03/27 03:02:09;;;;;;;11.75;2.03;;;;;;;4.36;71.32;99611.97;4992418;28;20066;-80
2023/03/27 03:04:41;;;;;;;10.63;1.77;;;;;;;4.35;71.88;99612.88;5009807;28;20428;-79
2023/03/27 03:07:10;;;;;;;10.27;1.95;;;;;;;4.35;72.26;99615.50;5009519;28;20081;-80
2023/03/27 03:09:37;;;;;;;7.57;1.77;;;;;;;4.35;72.46;99615.50;5009875;28;20456;-80
2023/03/27 03:12:06;;;;;;;10.52;2.58;;;;;;;4.34;72.21;99623.34;5009895;28;20483;-80
2023/03/27 03:14:37;;;;;;;9.98;1.55;;;;;;;4.32;72.09;99631.22;5012503;28;20054;-80
2023/03/27 03:17:03;;;;;;;5.88;1.42;;;;;;;4.31;72.40;99629.53;5013401;28;20050;-79
2023/03/27 03:21:57;;;;;;;9.57;1.85;;;;;;;4.29;72.20;99633.91;4988289;23;20112;-77
2023/03/27 03:24:26;;;;;;;6.32;1.45;;;;;;;4.29;72.46;99637.38;5014188;28;20509;-76
2023/03/27 03:26:53;;;;;;;7.35;1.58;;;;;;;4.28;72.45;99634.81;5013486;28;20972;-76
2023/03/27 03:29:19;;;;;;;7.60;2.53;;;;;;;4.26;72.17;99645.28;5014260;28;20549;-77
2023/03/27 03:31:46;;;;;;;9.93;2.00;;;;;;;4.25;72.35;99646.22;5014316;28;20088;-77
2023/03/27 03:34:15;;;;;;;9.45;1.90;;;;;;;4.23;71.89;99642.78;5014430;28;20057;-79
2023/03/27 03:36:43;;;;;;;7.63;1.65;;;;;;;4.22;72.19;99640.25;5013571;28;20089;-76
2023/03/27 03:39:11;;;;;;;6.15;1.80;;;;;;;4.21;72.32;99655.03;5014268;28;20058;-79
2023/03/27 03:41:38;;;;;;;6.72;1.77;;;;;;;4.19;72.05;99659.44;5013930;28;20226;-77
2023/03/27 03:44:04;;;;;;;8.15;1.58;;;;;;;4.17;72.21;99653.41;5014135;28;20133;-77
2023/03/27 03:46:31;;;;;;;7.10;1.95;;;;;;;4.15;72.12;99666.47;5013486;28;20391;-77
2023/03/27 03:48:58;;;;;;;10.90;1.95;;;;;;;4.14;72.51;99669.13;5013656;28;20054;-76
2023/03/27 03:51:25;;;;;;;6.82;1.65;;;;;;;4.13;72.79;99670.03;4996808;28;20049;-76
2023/03/27 03:53:51;;;;;;;7.75;1.70;;;;;;;4.10;72.18;99668.38;5013994;28;20054;-77
2023/03/27 03:56:18;;;;;;;10.88;1.75;;;;;;;4.08;72.51;99666.75;4996157;28;20845;-76
2023/03/27 03:58:44;;;;;;;6.88;1.98;;;;;;;4.06;72.39;99660.72;5013598;28;20085;-77
2023/03/27 04:01:11;;;;;;;7.05;1.88;;;;;;;4.07;72.32;99670.25;5013977;28;20053;-77
2023/03/27 04:03:38;;;;;;;6.05;1.70;;;;;;;4.05;72.56;99683.31;5013881;28;20050;-77
2023/03/27 04:06:06;;;;;;;7.88;2.03;;;;;;;4.04;72.43;99679.84;5013097;28;20457;-77
2023/03/27 04:08:33;;;;;;;10.00;1.90;;;;;;;4.03;72.26;99682.50;5012619;28;20181;-76
2023/03/27 04:11:00;;;;;;;7.18;2.10;;;;;;;4.02;72.66;99681.66;5013540;28;20057;-76
2023/03/27 04:13:26;;;;;;;15.68;2.15;;;;;;;4.00;72.44;99688.66;5013623;28;20057;-76
2023/03/27 04:15:54;;;;;;;6.75;1.92;;;;;;;3.97;72.15;99686.16;5013353;28;20054;-76
2023/03/27 04:18:22;;;;;;;6.85;1.77;;;;;;;3.97;72.70;99688.78;5013090;28;20470;-77
2023/03/27 04:20:49;;;;;;;9.40;2.20;;;;;;;3.96;72.58;99691.41;5013463;28;20100;-76
2023/03/27 04:23:17;;;;;;;4.53;1.70;;;;;;;3.93;72.72;99694.09;4996156;28;20054;-77
2023/03/27 04:25:47;;;;;;;10.52;1.75;;;;;;;3.93;71.98;99699.31;5012549;28;20054;-77
2023/03/27 04:28:16;;;;;;;5.28;1.67;;;;;;;3.90;72.21;99713.28;5012775;28;20394;-76
2023/03/27 04:30:43;;;;;;;9.43;1.98;;;;;;;3.86;72.59;99709.94;5012990;28;20053;-78
2023/03/27 04:33:17;;;;;;;6.00;1.90;;;;;;;3.85;72.67;99721.22;4995731;28;20057;-76
2023/03/27 04:35:45;;;;;;;5.88;2.00;;;;;;;3.84;73.15;99732.53;5012788;28;20569;-77
2023/03/27 04:38:33;;;;;;;8.75;1.75;;;;;;;3.86;73.52;99740.31;5013025;28;20057;-77
2023/03/27 04:41:00;;;;;;;9.57;1.60;;;;;;;3.89;73.66;99750.66;5012976;28;20517;-77
2023/03/27 04:43:27;;;;;;;7.78;1.83;;;;;;;3.91;74.47;99746.25;5013107;28;20517;-77
2023/03/27 04:45:53;;;;;;;5.80;2.00;;;;;;;3.96;74.33;99752.16;5012775;28;20050;-77
2023/03/27 04:48:20;;;;;;;9.43;1.83;;;;;;;4.00;74.14;99750.34;5012403;28;20056;-77
2023/03/27 04:50:48;;;;;;;6.15;1.60;;;;;;;4.04;73.83;99746.75;5011717;28;20116;-77
2023/03/27 04:53:16;;;;;;;4.90;1.30;;;;;;;4.08;73.67;99750.09;5013151;28;20088;-77
2023/03/27 04:55:44;;;;;;;7.95;1.50;;;;;;;4.11;73.54;99744.81;5011877;28;20683;-77
2023/03/27 04:58:12;;;;;;;8.68;1.70;;;;;;;4.14;73.27;99747.28;5012337;28;20093;-76
2023/03/27 05:00:39;;;;;;;6.28;1.40;;;;;;;4.15;72.87;99743.81;5012795;28;20504;-78
2023/03/27 05:03:06;;;;;;;6.40;1.45;;;;;;;4.14;72.71;99750.75;5012735;28;20483;-78
2023/03/27 05:05:33;;;;;;;4.07;1.60;;;;;;;4.14;72.25;99755.09;5012205;28;20062;-78
2023/03/27 05:08:00;;;;;;;7.25;1.45;;;;;;;4.10;72.14;99756.97;5012272;28;20050;-76
2023/03/27 05:10:26;;;;;;;6.10;1.98;;;;;;;4.07;72.10;99746.63;5012796;28;20057;-76
2023/03/27 05:12:53;;;;;;;7.82;1.90;;;;;;;4.05;72.12;99756.25;5012709;28;20068;-77
2023/03/27 05:15:23;;;;;;;5.72;1.55;;;;;;;4.01;72.26;99758.06;5012361;28;20057;-77
2023/03/27 05:17:53;;;;;;;6.28;1.90;;;;;;;3.98;72.26;99758.19;5011791;28;20053;-76
2023/03/27 05:20:21;;;;;;;8.00;1.55;;;;;;;3.97;72.05;99756.50;5011806;28;20061;-75
2023/03/27 05:22:48;;;;;;;9.23;1.52;;;;;;;3.95;72.55;99760.00;5012064;28;20387;-76
2023/03/27 05:25:15;;;;;;;11.50;1.90;;;;;;;3.92;72.12;99763.56;5011997;28;20054;-77
2023/03/27 05:27:49;;;;;;;7.82;2.10;;;;;;;3.88;70.97;99772.34;5011705;28;20100;-75
2023/03/27 05:30:19;;;;;;;6.47;2.10;;;;;;;3.88;72.11;99777.56;5012267;28;20140;-77
2023/03/27 05:32:48;;;;;;;8.20;1.98;;;;;;;3.87;72.20;99781.06;5012117;28;20058;-76
2023/03/27 05:35:16;;;;;;;9.43;2.15;;;;;;;3.85;72.07;99783.72;5011670;28;20109;-78
2023/03/27 05:37:48;;;;;;;14.07;2.45;;;;;;;3.83;71.64;99784.66;5011111;28;20730;-75
2023/03/27 05:40:15;;;;;;;7.05;1.80;;;;;;;3.82;72.20;99788.16;4994527;28;20076;-77
2023/03/27 05:42:45;;;;;;;4.40;1.45;;;;;;;3.77;71.73;99791.75;5011958;28;20451;-76
2023/03/27 05:45:13;;;;;;;9.05;1.90;;;;;;;3.77;72.63;99804.78;5011466;28;20062;-77
2023/03/27 05:47:51;;;;;;;6.28;1.83;;;;;;;3.72;71.59;99804.06;5011467;28;20056;-76
2023/03/27 05:50:20;;;;;;;8.05;2.05;;;;;;;3.72;72.49;99806.66;5011752;28;20055;-77
2023/03/27 05:52:46;;;;;;;5.70;2.10;;;;;;;3.71;73.06;99804.97;5011694;28;20562;-77
2023/03/27 05:55:16;;;;;;;8.25;2.13;;;;;;;3.70;73.22;99808.44;5011129;28;20141;-76
2023/03/27 05:57:42;;;;;;;4.25;1.50;;;;;;;3.71;73.32;99807.56;5011122;28;20140;-77
2023/03/27 06:00:12;;;;;;;10.55;2.10;;;;;;;3.71;73.31;99809.31;5011697;28;20054;-77
2023/03/27 06:02:41;;;;;;;5.82;1.67;;;;;;;3.74;73.89;99820.47;5011702;28;20057;-76
2023/03/27 06:05:14;;;;;;;4.80;1.77;;;;;;;3.75;73.98;99817.00;5011170;28;20058;-76
2023/03/27 06:07:42;;;;;;;7.28;2.03;;;;;;;3.79;73.58;99815.16;5011005;28;20116;-74
2023/03/27 06:10:12;;;;;;;9.77;1.73;;;;;;;3.80;73.54;99813.38;4993971;28;20054;-76
2023/03/27 06:12:40;;;;;;;11.00;2.25;;;;;;;3.82;74.20;99815.06;5011615;28;20061;-78
2023/03/27 06:15:08;;;;;;;16.85;2.45;;;;;;;3.83;74.38;99815.91;5010704;28;20064;-76
2023/03/27 06:17:38;;;;;;;7.57;1.80;;;;;;;3.86;74.00;99823.66;5010937;28;20103;-76
2023/03/27 06:20:14;;;;;;;8.48;1.60;;;;;;;3.90;74.60;99838.28;5011195;28;20056;-75
2023/03/27 06:22:52;;;;;;;10.40;1.80;;;;;;;3.90;72.93;99839.13;4993670;28;20624;-75
2023/03/27 06:25:19;;;;;;;8.30;2.38;;;;;;;3.97;74.87;99836.38;5010707;28;20517;-77
2023/03/27 06:27:48;;;;;;;7.93;1.63;;;;;;;4.01;75.05;99845.81;5010715;28;20049;-76
2023/03/27 06:30:19;;;;;;;8.02;1.77;;;;;;;4.05;74.69;99839.59;5011234;28;20145;-76
2023/03/27 06:32:49;;;;;;;4.90;1.85;;;;;;;4.12;74.91;99842.88;5011090;28;20054;-77
2023/03/27 06:35:20;;;;;;;8.93;1.67;;;;;;;4.19;73.78;99843.56;5010508;28;20136;-75
2023/03/27 06:37:49;;;;;;;8.85;2.10;;;;;;;4.26;75.27;99843.31;5010402;28;20478;-76
2023/03/27 06:40:21;;;;;;;7.35;1.75;;;;;;;4.32;75.25;99844.91;5011045;28;20101;-77
2023/03/27 06:42:59;;;;;;;7.90;1.65;;;;;;;4.37;74.27;99850.00;5011019;28;20054;-76
2023/03/27 06:45:32;;;;;;;7.78;1.50;;;;;;;4.42;73.84;99856.75;4993084;28;20076;-76
2023/03/27 06:48:01;;;;;;;7.88;1.58;;;;;;;4.49;74.40;99853.97;5010447;28;20060;-76
2023/03/27 06:50:46;;;;;;;5.60;1.70;;;;;;;4.54;74.37;99858.16;5010918;28;20673;-77
2023/03/27 06:53:15;;;;;;;10.45;1.60;;;;;;;4.57;74.32;99859.81;5010733;28;20783;-76
2023/03/27 06:55:53;;;;;;;10.52;2.80;;;;;;;4.58;74.16;99861.50;5010598;28;20062;-76
2023/03/27 06:58:20;;;;;;;8.90;1.98;;;;;;;4.59;73.82;99870.19;5010443;28;20054;-77
2023/03/27 07:00:48;;;;;;;5.65;1.83;;;;;;;4.58;73.83;99866.72;5010687;28;20068;-76
2023/03/27 07:03:16;;;;;;;6.63;1.73;;;;;;;4.59;73.92;99872.81;5010808;28;20054;-76
2023/03/27 07:05:43;;;;;;;3.95;1.63;;;;;;;4.60;74.69;99877.13;5010297;28;20093;-76
2023/03/27 07:08:13;;;;;;;7.38;2.15;;;;;;;4.61;74.11;99882.28;5009957;28;20057;-77
2023/03/27 07:10:53;;;;;;;8.55;2.10;;;;;;;4.66;74.60;99895.16;5010852;28;20145;-76
2023/03/27 07:13:36;;;;;;;9.10;1.83;;;;;;;4.69;74.32;99900.31;5010492;28;20513;-76
2023/03/27 07:16:04;;;;;;;5.90;1.70;;;;;;;4.73;74.67;99907.13;5010220;28;20050;-77
2023/03/27 07:18:30;;;;;;;9.32;1.95;;;;;;;4.78;75.28;99907.84;5010019;28;20054;-77
2023/03/27 07:20:57;;;;;;;7.47;2.15;;;;;;;4.85;75.23;99910.28;5010407;28;20475;-77
2023/03/27 07:23:25;;;;;;;7.40;2.15;;;;;;;4.91;75.35;99908.31;5010607;28;20157;-76
2023/03/27 07:25:56;;;;;;;12.32;2.20;;;;;;;4.95;74.07;99919.50;5010104;28;20504;-76
2023/03/27 07:28:23;;;;;;;7.78;1.67;;;;;;;5.02;74.78;99922.78;5008730;28;20053;-77
2023/03/27 07:30:52;;;;;;;8.48;1.92;;;;;;;5.04;74.48;99924.44;5010436;28;20054;-77
2023/03/27 07:33:19;;;;;;;12.38;2.65;;;;;;;5.09;74.49;99926.91;5010365;28;20053;-77
2023/03/27 07:35:47;;;;;;;7.93;2.15;;;;;;;5.09;74.17;99927.75;5010234;28;20070;-77
2023/03/27 07:38:14;;;;;;;6.38;2.08;;;;;;;5.13;74.68;99931.13;5010034;28;20120;-76
2023/03/27 07:40:44;;;;;;;6.95;2.13;;;;;;;5.16;74.52;99927.56;5010422;28;20054;-77
2023/03/27 07:43:12;;;;;;;8.32;1.75;;;;;;;5.20;74.64;99931.78;5010304;28;20105;-77
2023/03/27 07:45:40;;;;;;;7.18;2.13;;;;;;;5.25;74.89;99931.63;5009907;28;20101;-76
2023/03/27 07:48:10;;;;;;;10.80;1.50;;;;;;;5.29;74.65;99935.84;5009755;28;20057;-77
2023/03/27 07:50:37;;;;;;;5.15;1.95;;;;;;;5.35;74.93;99940.91;5010384;28;20076;-77
2023/03/27 07:53:07;;;;;;;4.70;2.13;;;;;;;5.38;74.82;99945.16;5010422;28;20053;-76
2023/03/27 07:55:36;;;;;;;8.13;2.20;;;;;;;5.44;74.93;99952.78;4992706;28;20089;-78
2023/03/27 07:58:05;;;;;;;5.05;1.67;;;;;;;5.48;74.97;99950.03;5009874;28;20383;-77
2023/03/27 08:00:35;;;;;;;9.05;2.30;;;;;;;5.53;74.21;99955.06;5012523;28;20140;-77
2023/03/27 08:03:07;;;;;;;4.93;1.48;;;;;;;5.58;73.83;99950.56;5013888;28;20131;-76
2023/03/27 08:05:35;;;;;;;8.02;1.90;;;;;;;5.66;74.36;99952.94;5013537;28;20494;-77
2023/03/27 08:08:02;;;;;;;4.53;1.63;;;;;;;5.71;74.61;99942.31;5013511;28;20145;-77
2023/03/27 08:10:29;;;;;;;10.32;1.63;;;;;;;5.77;74.29;99960.41;5013605;28;20569;-77
2023/03/27 08:12:56;;;;;;;6.05;1.95;;;;;;;5.80;74.45;99947.22;5013756;28;20478;-77
2023/03/27 08:15:23;;;;;;;4.78;1.83;;;;;;;5.85;74.40;99960.13;5013699;28;20129;-77
2023/03/27 08:17:53;;;;;;;6.55;1.48;;;;;;;5.90;74.78;99962.59;5013572;28;20466;-78
2023/03/27 08:20:21;;;;;;;6.50;1.50;;;;;;;5.96;74.75;99962.38;5013340;28;20084;-77
2023/03/27 08:22:54;;;;;;;6.65;1.92;;;;;;;6.01;73.78;99957.84;5013571;28;20512;-76
2023/03/27 08:25:25;;;;;;;3.10;1.30;;;;;;;6.10;74.74;99957.53;5013036;28;20104;-77
2023/03/27 08:27:52;;;;;;;4.57;1.35;;;;;;;6.19;75.04;99959.00;5013135;28;20057;-77
2023/03/27 08:30:19;;;;;;;6.22;1.50;;;;;;;6.25;74.01;99966.59;5013392;28;20058;-77
2023/03/27 08:32:45;;;;;;;3.80;1.40;;;;;;;6.31;73.87;99962.09;5013392;28;20129;-76
2023/03/27 08:35:12;;;;;;;5.93;2.17;;;;;;;6.36;74.37;99965.38;5012828;28;20061;-77
2023/03/27 08:37:40;;;;;;;5.15;1.92;;;;;;;6.42;74.02;99964.31;5012697;28;20514;-76
2023/03/27 08:40:18;;;;;;;5.88;1.67;;;;;;;6.44;71.96;99967.72;5013002;28;20057;-77
2023/03/27 08:42:48;;;;;;;7.57;1.48;;;;;;;6.50;73.76;99967.47;5012065;28;20145;-77
2023/03/27 08:45:35;;;;;;;11.38;1.42;;;;;;;6.50;70.87;99973.56;4995311;28;20058;-77
2023/03/27 08:48:29;;;;;;;6.53;1.50;;;;;;;6.53;69.81;99972.59;5012358;28;20054;-77
2023/03/27 08:50:59;;;;;;;4.82;1.40;;;;;;;6.62;73.10;99977.50;5002731;28;20136;-76
2023/03/27 08:54:05;;;;;;;5.47;1.40;;;;;;;6.65;71.06;99981.75;5012977;28;20054;-77
2023/03/27 08:56:31;;;;;;;5.78;1.73;;;;;;;6.77;74.63;99975.25;5001757;28;20144;-77
2023/03/27 08:58:59;;;;;;;15.45;1.83;;;;;;;6.85;74.27;99972.31;4995263;28;20054;-77
2023/03/27 09:01:29;;;;;;;5.82;1.27;;;;;;;6.91;71.99;99978.16;5012744;28;20064;-77
2023/03/27 09:04:26;;;;;;;5.45;1.60;;;;;;;7.00;70.53;99986.59;5012746;28;20495;-77
2023/03/27 09:07:09;;;;;;;7.18;1.20;;;;;;;7.12;71.78;99988.72;4994705;28;20148;-76
2023/03/27 09:09:45;;;;;;;6.93;1.73;;;;;;;7.26;71.09;99982.09;5012729;28;20157;-76
2023/03/27 09:12:18;;;;;;;12.57;1.42;;;;;;;7.36;72.98;99979.97;5011494;28;20050;-77
2023/03/27 09:14:53;;;;;;;5.55;1.10;;;;;;;7.43;70.37;99989.25;5012408;28;20056;-76
2023/03/27 09:17:45;;;;;;;4.88;1.13;;;;;;;7.52;69.76;99988.06;5011962;28;20144;-75
2023/03/27 09:23:02;;;;;;;12.93;2.30;;;;;;;7.69;71.15;99985.59;4951635;28;20059;-81
2023/03/27 09:25:38;;;;;;;4.15;1.40;;;;;;;7.76;68.81;99969.59;4952820;28;20524;-80
2023/03/27 09:28:18;;;;;;;6.03;1.25;;;;;;;7.82;68.48;99985.94;4952855;29;20051;-80
2023/03/27 09:30:44;;;;;;;7.75;1.58;;;;;;;7.94;72.43;99986.34;4953063;28;20565;-80
2023/03/27 09:33:11;;;;;;;8.15;1.15;;;;;;;8.03;73.25;99987.69;4953045;28;20506;-80
2023/03/27 09:35:38;;;;;;;4.85;0.70;;;;;;;8.14;72.26;99992.47;4952686;28;20506;-80
2023/03/27 09:38:49;;;;;;;5.10;1.20;;;;;;;8.20;65.20;99990.47;4967289;28;20051;-80
2023/03/27 09:41:26;;;;;;;4.80;1.15;;;;;;;8.28;66.96;100003.25;4893280;29;20067;-80
2023/03/27 09:44:06;;;;;;;9.30;1.23;;;;;;;8.35;65.67;99999.41;4893449;29;20615;-80
2023/03/27 09:46:36;;;;;;;6.40;1.23;;;;;;;8.46;68.86;100001.56;4932903;28;20059;-80
2023/03/27 09:49:13;;;;;;;5.75;1.20;;;;;;;8.53;67.23;100001.34;4952824;28;20051;-80
2023/03/27 09:51:45;;;;;;;7.60;1.20;;;;;;;8.59;69.60;100011.56;4952671;28;20055;-80
2023/03/27 09:54:16;;;;;;;5.88;1.20;;;;;;;8.60;68.71;100008.88;4951509;28;20063;-80
2023/03/27 09:57:09;;;;;;;3.15;1.00;;;;;;;8.64;65.25;100013.97;4952126;28;20059;-80
2023/03/27 09:59:39;;;;;;;6.45;1.27;;;;;;;8.79;69.64;100001.94;4952683;28;20066;-80
2023/03/27 10:02:22;;;;;;;6.35;1.30;;;;;;;8.89;65.44;100011.09;4952618;28;20477;-80
2023/03/27 10:05:03;;;;;;;6.57;1.10;;;;;;;9.02;66.65;100005.28;4952455;28;20055;-80
2023/03/27 10:07:29;;;;;;;7.00;1.55;;;;;;;9.16;70.05;99994.97;4952301;28;20070;-80
2023/03/27 10:10:14;;;;;;;5.45;1.08;;;;;;;9.23;63.81;100009.50;4952172;28;20441;-80
2023/03/27 10:12:41;;;;;;;4.50;1.00;;;;;;;9.35;68.75;100009.88;4952258;29;20527;-80
2023/03/27 10:15:23;;;;;;;6.68;1.30;;;;;;;9.37;63.46;100024.63;4952108;28;20110;-80
2023/03/27 10:17:50;;;;;;;4.75;1.23;;;;;;;9.43;67.42;100041.88;4951850;29;20066;-80
2023/03/27 10:20:19;;;;;;;6.07;1.38;;;;;;;9.39;65.67;100053.47;4952297;28;20061;-81
2023/03/27 10:23:06;;;;;;;6.15;1.38;;;;;;;9.24;63.16;100053.25;4951714;28;20459;-80
2023/03/27 10:25:37;;;;;;;5.28;1.33;;;;;;;9.12;65.65;100049.41;4951978;28;20133;-80
2023/03/27 10:28:13;;;;;;;8.40;1.38;;;;;;;8.94;64.03;100053.72;4951838;28;20059;-80
2023/03/27 10:30:39;;;;;;;8.63;1.42;;;;;;;8.89;68.78;100060.13;4952089;28;20062;-80
2023/03/27 10:33:06;;;;;;;2.47;0.90;;;;;;;8.84;70.00;100053.31;4951942;28;20061;-80
2023/03/27 10:35:36;;;;;;;4.63;0.88;;;;;;;8.88;70.65;100055.78;4950680;28;20529;-80
2023/03/27 10:38:10;;;;;;;3.70;1.30;;;;;;;8.94;70.56;100052.91;4950519;28;20059;-80
2023/03/27 10:40:38;;;;;;;5.40;0.75;;;;;;;9.05;69.88;100049.78;4951912;28;20055;-80
2023/03/27 10:43:11;;;;;;;4.70;0.90;;;;;;;9.11;67.42;100046.84;4951928;28;20059;-81
2023/03/27 10:46:04;;;;;;;;;;;;;;;9.15;66.09;100047.59;4966535;28;20506;-80
2023/03/27 10:48:47;;;;;;;4.18;1.08;;;;;;;9.16;65.61;100050.13;4950335;28;19932;-80
2023/03/27 10:51:39;;;;;;;6.55;1.08;;;;;;;9.17;65.13;100049.22;4952015;28;20051;-80
2023/03/27 10:54:31;;;;;;;1.40;0.60;;;;;;;9.20;64.70;100041.16;4952201;28;20750;-80
2023/03/27 10:57:03;;;;;;;2.60;0.73;;;;;;;9.31;67.93;100050.34;4951194;28;20047;-80
2023/03/27 10:59:33;;;;;;;1.33;0.43;;;;;;;9.39;67.94;100048.22;4951947;28;20130;-80
2023/03/27 11:02:37;;;;;;;1.25;0.50;;;;;;;9.51;60.72;100050.25;4951658;28;20442;-80
2023/03/27 11:05:14;;;;;;;3.33;0.60;;;;;;;9.72;66.90;100049.28;4946401;28;20102;-80
2023/03/27 11:07:45;;;;;;;2.17;0.70;;;;;;;9.94;69.07;100056.13;4951535;28;20058;-80
2023/03/27 11:10:18;;;;;;;2.22;0.77;;;;;;;10.20;71.99;100053.97;4951734;28;20051;-80
2023/03/27 11:12:57;;;;;;;4.93;0.82;;;;;;;10.45;64.94;100050.09;4951869;28;20063;-81
2023/03/27 11:15:32;;;;;;;4.40;1.00;;;;;;;10.68;63.93;100056.78;4951609;28;20055;-80
2023/03/27 11:18:05;;;;;;;2.45;0.95;;;;;;;10.88;65.07;100063.63;4951683;28;20063;-81
2023/03/27 11:21:00;;;;;;;3.28;0.75;;;;;;;11.04;60.90;100049.63;4951597;29;20057;-80
2023/03/27 11:23:38;;;;;;;2.20;1.00;;;;;;;11.26;62.92;100059.00;4949646;28;20055;-80
2023/03/27 11:26:06;;;;;;;5.88;0.88;;;;;;;11.48;66.58;100058.66;4951515;28;20055;-80
2023/03/27 11:28:42;;;;;;;2.90;0.77;;;;;;;11.76;63.62;100056.22;4951400;28;20055;-80
2023/03/27 11:31:36;;;;;;;5.65;1.05;;;;;;;12.23;72.81;100059.72;4951473;28;20482;-80
2023/03/27 11:34:38;;;;;;;8.30;1.42;;;;;;;12.97;65.49;100064.13;4949977;28;20122;-80
2023/03/27 11:37:41;;;;;;;3.90;0.98;;;;;;;13.75;62.67;100053.97;4955151;28;20075;-79
2023/03/27 11:40:18;;;;;;;3.22;0.73;;;;;;;14.34;62.68;100065.94;4930377;28;20110;-80
2023/03/27 11:42:46;;;;;;;4.15;1.17;;;;;;;14.70;63.69;100060.88;4955276;28;20369;-80
2023/03/27 11:45:16;;;;;;;8.30;1.40;;;;;;;14.78;56.68;100065.66;4954698;28;20062;-80
2023/03/27 11:47:45;;;;;;;5.30;1.60;;;;;;;14.74;57.74;100072.97;4954724;28;20055;-79
2023/03/27 11:50:57;;;;;;;5.20;1.38;;;;;;;14.74;55.38;100072.97;4954730;28;20521;-80
2023/03/27 11:53:31;;;;;;;7.07;1.23;;;;;;;15.03;66.01;100070.06;4940433;28;20063;-80
2023/03/27 11:56:29;;;;;;;4.32;1.20;;;;;;;15.35;60.79;100082.84;4954610;28;20059;-80
2023/03/27 11:59:17;;;;;;;4.68;1.10;;;;;;;15.87;58.13;100082.66;4954535;28;20538;-79
2023/03/27 12:01:54;;;;;;;4.60;0.80;;;;;;;16.39;61.29;100078.84;4954577;28;20469;-80
2023/03/27 12:04:54;;;;;;;2.58;0.77;;;;;;;16.91;56.37;100075.78;4954730;28;20098;-80
2023/03/27 12:07:26;;;;;;;4.30;1.20;;;;;;;17.44;60.66;100083.13;4954450;28;20145;-80
2023/03/27 12:10:27;;;;;;;3.73;1.00;;;;;;;17.93;51.54;100084.53;4968076;28;20055;-80
2023/03/27 12:13:30;;;;;;;3.88;1.30;;;;;;;18.26;53.56;100088.06;4954740;28;20124;-80
2023/03/27 12:16:16;;;;;;;2.30;1.13;;;;;;;18.23;48.62;100085.66;4954291;28;20055;-80